Time;durP1;ratioP1;P1;durP2;ratioP2;P2;SDS_P1;SDS_P2;PMS_P1;PMS_P2;Temp;Humidity;BMP_temperature;BMP_pressure;BME280_temperature;BME280_humidity;BME280_pressure;Samples;Min_cycle;Max_cycle;Signal;HPM_P1;HPM_P2
2022/05/07 00:00:27;;;;;;;12.85;9.73;;;13.90;99.90;;;;;;5000970;28;20045;-42
2022/05/07 00:02:53;;;;;;;14.23;11.02;;;13.80;99.90;;;;;;4984110;28;20177;-40
2022/05/07 00:05:19;;;;;;;16.35;11.38;;;13.90;99.90;;;;;;5000849;28;20101;-41
2022/05/07 00:07:46;;;;;;;11.98;9.85;;;13.90;99.90;;;;;;5004068;28;20907;-42
2022/05/07 00:10:11;;;;;;;14.93;9.38;;;13.90;99.90;;;;;;4987151;28;20522;-41
2022/05/07 00:12:37;;;;;;;13.52;10.35;;;13.90;99.90;;;;;;5004401;28;20054;-42
2022/05/07 00:15:03;;;;;;;14.95;11.60;;;13.90;99.90;;;;;;4997161;28;20037;-41
2022/05/07 00:20:13;;;;;;;14.00;10.82;;;13.90;99.90;;;;;;4995089;28;20046;-42
2022/05/07 00:22:39;;;;;;;16.60;10.82;;;13.90;99.90;;;;;;5003894;28;20049;-41
2022/05/07 00:25:05;;;;;;;12.52;10.65;;;13.80;99.90;;;;;;5003314;28;20480;-40
2022/05/07 00:27:31;;;;;;;14.80;11.63;;;13.70;99.90;;;;;;5003160;28;20200;-44
2022/05/07 00:29:56;;;;;;;13.02;10.15;;;13.70;99.90;;;;;;5004084;28;20073;-43
2022/05/07 00:32:22;;;;;;;13.70;11.20;;;13.60;99.90;;;;;;5005244;28;20151;-42
2022/05/07 00:34:47;;;;;;;15.45;11.32;;;13.60;99.90;;;;;;5003637;28;20113;-41
2022/05/07 00:37:13;;;;;;;15.35;11.63;;;13.60;99.90;;;;;;5000785;28;20042;-43
2022/05/07 00:39:39;;;;;;;14.07;11.27;;;13.60;99.90;;;;;;5000912;28;20045;-44
2022/05/07 00:42:06;;;;;;;14.82;11.50;;;13.50;99.90;;;;;;4997198;28;20030;-41
2022/05/07 00:44:33;;;;;;;13.10;10.65;;;13.50;99.90;;;;;;4986322;28;20042;-45
2022/05/07 00:47:15;;;;;;;13.77;10.60;;;13.50;99.90;;;;;;5008521;28;20779;-43
2022/05/07 00:49:47;;;;;;;18.98;12.18;;;13.60;99.90;;;;;;5001120;28;20042;-42
2022/05/07 00:52:13;;;;;;;12.50;10.23;;;13.60;99.90;;;;;;4999743;28;20127;-40
2022/05/07 00:54:40;;;;;;;16.65;12.00;;;13.60;99.90;;;;;;5004955;28;20418;-41
2022/05/07 00:57:08;;;;;;;16.40;12.93;;;13.60;99.90;;;;;;5002559;28;20525;-41
2022/05/07 00:59:34;;;;;;;16.38;12.48;;;13.70;99.90;;;;;;5004457;28;20083;-41
2022/05/07 01:02:00;;;;;;;16.17;11.38;;;13.70;99.90;;;;;;5003742;28;20446;-41
2022/05/07 01:04:25;;;;;;;14.63;12.15;;;13.70;99.90;;;;;;4990209;28;20060;-44
2022/05/07 01:06:52;;;;;;;18.00;11.95;;;13.80;99.90;;;;;;5005493;28;20037;-43
2022/05/07 01:09:19;;;;;;;14.73;12.18;;;13.80;99.90;;;;;;4989478;28;20051;-40
2022/05/07 01:11:45;;;;;;;15.93;12.70;;;13.80;99.90;;;;;;5003755;28;20107;-43
2022/05/07 01:14:10;;;;;;;18.92;12.25;;;13.90;99.90;;;;;;5004796;28;20407;-43
2022/05/07 01:16:36;;;;;;;18.33;12.98;;;13.90;99.90;;;;;;5002518;28;20100;-45
2022/05/07 01:19:02;;;;;;;14.82;12.25;;;14.00;99.90;;;;;;4983135;28;20053;-43
2022/05/07 01:21:28;;;;;;;17.58;12.77;;;14.00;99.90;;;;;;5008519;28;20145;-45
2022/05/07 01:23:54;;;;;;;15.85;11.63;;;13.90;99.90;;;;;;5005458;28;20064;-41
2022/05/07 01:26:22;;;;;;;19.20;12.85;;;14.00;99.90;;;;;;5007073;28;20037;-42
2022/05/07 01:28:49;;;;;;;15.48;12.07;;;14.00;99.90;;;;;;4995549;28;20054;-43
2022/05/07 01:31:15;;;;;;;14.98;11.60;;;14.00;99.90;;;;;;5005130;28;20042;-41
2022/05/07 01:33:42;;;;;;;15.95;11.93;;;14.00;99.90;;;;;;5004732;28;20065;-43
2022/05/07 01:36:11;;;;;;;15.18;11.98;;;14.00;99.90;;;;;;5002400;28;20046;-44
2022/05/07 01:38:37;;;;;;;18.02;12.38;;;13.90;99.90;;;;;;5008772;28;20566;-42
2022/05/07 01:41:04;;;;;;;15.98;12.85;;;14.00;99.90;;;;;;5005441;28;20050;-43
2022/05/07 01:43:32;;;;;;;15.40;12.32;;;14.00;99.90;;;;;;5005056;28;20072;-42
2022/05/07 01:46:01;;;;;;;14.77;11.48;;;13.90;99.90;;;;;;5004645;28;20042;-43
2022/05/07 01:48:28;;;;;;;16.20;12.30;;;13.90;99.90;;;;;;5004949;28;20065;-42
2022/05/07 01:50:53;;;;;;;15.48;12.18;;;13.90;99.90;;;;;;5008327;28;20068;-42
2022/05/07 01:53:19;;;;;;;14.30;12.18;;;13.90;99.90;;;;;;5005989;28;20510;-44
2022/05/07 01:55:45;;;;;;;15.63;12.18;;;13.90;99.90;;;;;;5001218;28;20046;-45
2022/05/07 01:58:11;;;;;;;17.58;13.15;;;13.90;99.90;;;;;;5007740;28;20044;-45
2022/05/07 02:00:40;;;;;;;14.35;12.57;;;13.90;99.90;;;;;;5007295;28;20038;-42
2022/05/07 02:03:07;;;;;;;17.00;12.25;;;13.80;99.90;;;;;;5003940;28;20403;-42
2022/05/07 02:05:32;;;;;;;17.00;13.38;;;13.80;99.90;;;;;;5002334;28;20064;-42
2022/05/07 02:07:58;;;;;;;13.65;11.65;;;13.80;99.90;;;;;;5006856;28;20026;-44
2022/05/07 02:10:25;;;;;;;18.90;13.02;;;13.80;99.90;;;;;;5005389;28;20088;-41
2022/05/07 02:12:52;;;;;;;16.23;12.10;;;13.80;99.90;;;;;;5005975;28;20473;-42
2022/05/07 02:15:17;;;;;;;18.60;13.07;;;13.80;99.90;;;;;;5004345;28;20084;-42
2022/05/07 02:17:43;;;;;;;21.73;14.20;;;13.70;99.90;;;;;;5005848;28;20053;-42
2022/05/07 02:20:09;;;;;;;17.48;12.82;;;13.70;99.90;;;;;;5002360;28;20042;-42
2022/05/07 02:22:35;;;;;;;16.17;12.93;;;13.70;99.90;;;;;;5006532;28;20428;-42
2022/05/07 02:25:01;;;;;;;16.40;13.13;;;13.60;99.90;;;;;;5000522;28;20145;-43
2022/05/07 02:27:27;;;;;;;16.35;11.63;;;13.70;99.90;;;;;;5001424;28;20205;-42
2022/05/07 02:29:52;;;;;;;15.90;12.32;;;13.70;99.90;;;;;;5004538;28;20062;-43
2022/05/07 02:32:19;;;;;;;14.50;11.55;;;13.70;99.90;;;;;;4972945;28;20037;-43
2022/05/07 02:34:44;;;;;;;14.82;12.77;;;13.70;99.90;;;;;;5003932;28;20034;-43
2022/05/07 02:37:10;;;;;;;16.17;13.40;;;13.70;99.90;;;;;;5004522;28;21303;-43
2022/05/07 02:39:36;;;;;;;14.82;12.52;;;13.60;99.90;;;;;;5004716;28;20133;-41
2022/05/07 02:44:47;;;;;;;17.67;13.43;;;13.60;99.90;;;;;;5006387;28;20584;-42
2022/05/07 02:47:13;;;;;;;15.05;12.55;;;13.60;99.90;;;;;;5004498;28;20073;-41
2022/05/07 02:49:38;;;;;;;19.58;14.18;;;13.60;99.90;;;;;;5005947;28;20074;-41
2022/05/07 02:52:04;;;;;;;16.85;13.88;;;13.50;99.90;;;;;;5002044;28;20053;-43
2022/05/07 02:54:30;;;;;;;18.52;14.35;;;13.50;99.90;;;;;;4987313;28;20436;-41
2022/05/07 02:56:56;;;;;;;17.23;13.80;;;13.50;99.90;;;;;;5001730;28;20048;-40
2022/05/07 02:59:22;;;;;;;14.20;11.05;;;13.50;99.90;;;;;;4999940;28;20042;-40
2022/05/07 03:01:48;;;;;;;17.88;15.02;;;13.50;99.90;;;;;;4995420;28;20054;-40
2022/05/07 03:04:14;;;;;;;17.20;13.38;;;13.50;99.90;;;;;;5003654;28;20472;-40
2022/05/07 03:06:39;;;;;;;19.38;14.30;;;13.40;99.90;;;;;;5005276;28;20041;-42
2022/05/07 03:09:05;;;;;;;20.27;14.90;;;13.50;99.90;;;;;;5006004;28;20041;-39
2022/05/07 03:11:35;;;;;;;18.90;14.68;;;13.40;99.90;;;;;;5005811;28;20458;-40
2022/05/07 03:14:01;;;;;;;19.70;14.95;;;13.40;99.90;;;;;;5004243;28;20384;-42
2022/05/07 03:16:27;;;;;;;19.30;14.50;;;13.40;99.90;;;;;;5003581;28;20037;-40
2022/05/07 03:18:53;;;;;;;20.40;14.43;;;13.40;99.90;;;;;;5005343;28;20052;-39
2022/05/07 03:21:18;;;;;;;18.15;14.27;;;13.40;99.90;;;;;;5004564;28;20034;-39
2022/05/07 03:23:45;;;;;;;19.02;13.05;;;13.30;99.90;;;;;;5005637;28;20034;-41
2022/05/07 03:26:11;;;;;;;20.73;14.52;;;13.30;99.90;;;;;;4998178;28;20042;-40
2022/05/07 03:28:37;;;;;;;18.98;16.13;;;13.30;99.90;;;;;;5004157;28;20227;-40
2022/05/07 03:31:04;;;;;;;20.55;14.70;;;13.30;99.90;;;;;;5001495;28;20124;-42
2022/05/07 03:33:30;;;;;;;18.85;15.27;;;13.30;99.90;;;;;;4999640;28;20050;-40
2022/05/07 03:35:55;;;;;;;24.13;16.27;;;13.30;99.90;;;;;;5002646;28;20144;-42
2022/05/07 03:38:22;;;;;;;21.95;15.85;;;13.30;99.90;;;;;;5003209;28;20037;-39
2022/05/07 03:40:48;;;;;;;18.05;14.30;;;13.30;99.90;;;;;;5002335;28;20418;-42
2022/05/07 03:43:14;;;;;;;20.58;15.60;;;13.30;99.90;;;;;;5004769;28;20029;-39
2022/05/07 03:45:40;;;;;;;18.27;14.35;;;13.30;99.90;;;;;;5000513;28;20038;-40
2022/05/07 03:48:06;;;;;;;19.45;15.85;;;13.30;99.90;;;;;;4979613;28;20072;-39
2022/05/07 03:50:32;;;;;;;21.20;15.98;;;13.30;99.90;;;;;;5006581;28;20479;-43
2022/05/07 03:55:42;;;;;;;21.52;15.50;;;13.20;99.90;;;;;;5000229;28;20132;-43
2022/05/07 03:58:15;;;;;;;18.20;14.52;;;13.20;99.90;;;;;;5004917;28;20084;-40
2022/05/07 04:00:41;;;;;;;21.58;17.20;;;13.20;99.90;;;;;;4997660;28;20034;-41
2022/05/07 04:03:06;;;;;;;15.45;12.43;;;13.20;99.90;;;;;;5000883;28;20173;-41
2022/05/07 04:05:32;;;;;;;18.98;15.85;;;13.20;99.90;;;;;;5001012;28;20034;-41
2022/05/07 04:07:58;;;;;;;17.70;13.77;;;13.20;99.90;;;;;;5001702;28;20042;-41
2022/05/07 04:10:24;;;;;;;18.95;14.77;;;13.20;99.90;;;;;;5005185;28;20557;-40
2022/05/07 04:12:51;;;;;;;18.60;14.75;;;13.20;99.90;;;;;;4987973;28;20066;-40
2022/05/07 04:15:23;;;;;;;19.15;14.00;;;13.20;99.90;;;;;;5001271;28;20034;-40
2022/05/07 04:17:49;;;;;;;24.27;15.95;;;13.20;99.90;;;;;;5003593;28;20034;-43
2022/05/07 04:20:15;;;;;;;23.80;17.17;;;13.10;99.90;;;;;;4999065;28;21239;-39
2022/05/07 04:22:41;;;;;;;22.33;16.92;;;13.10;99.90;;;;;;5000136;28;20038;-40
2022/05/07 04:25:08;;;;;;;20.48;16.75;;;13.10;99.90;;;;;;4995671;28;20046;-41
2022/05/07 04:27:34;;;;;;;23.85;16.58;;;13.10;99.90;;;;;;5005762;28;20033;-41
2022/05/07 04:30:00;;;;;;;20.67;17.20;;;13.10;99.90;;;;;;5001675;28;20041;-42
2022/05/07 04:32:27;;;;;;;20.88;17.60;;;13.10;99.90;;;;;;4988689;28;20076;-42
2022/05/07 04:34:55;;;;;;;21.38;15.43;;;13.10;99.90;;;;;;4999292;28;20092;-41
2022/05/07 04:37:21;;;;;;;23.92;18.17;;;13.10;99.90;;;;;;4984978;28;20177;-42
2022/05/07 04:39:47;;;;;;;24.65;16.88;;;13.10;99.90;;;;;;5003589;28;20038;-40
2022/05/07 04:42:13;;;;;;;22.40;17.45;;;13.10;99.90;;;;;;5005164;28;20042;-43
2022/05/07 04:44:38;;;;;;;21.80;17.05;;;13.10;99.90;;;;;;5005629;28;20041;-40
2022/05/07 04:47:05;;;;;;;22.65;16.23;;;13.10;99.90;;;;;;5001295;28;20038;-42
2022/05/07 04:49:32;;;;;;;25.88;17.75;;;13.10;99.90;;;;;;5002563;28;20050;-40
2022/05/07 04:51:58;;;;;;;22.88;17.25;;;13.10;99.90;;;;;;4992466;28;20057;-41
2022/05/07 04:54:24;;;;;;;19.38;14.80;;;13.10;99.90;;;;;;5008656;28;20061;-40
2022/05/07 04:56:52;;;;;;;19.17;14.68;;;13.20;99.90;;;;;;5003613;28;20105;-44
2022/05/07 04:59:19;;;;;;;23.20;18.05;;;13.20;99.90;;;;;;5006411;28;20132;-42
2022/05/07 05:01:45;;;;;;;22.13;16.75;;;13.20;99.90;;;;;;4987648;28;20046;-40
2022/05/07 05:04:11;;;;;;;22.08;16.55;;;13.20;99.90;;;;;;5007555;28;20493;-41
2022/05/07 05:06:37;;;;;;;21.67;16.92;;;13.30;99.90;;;;;;5005583;28;20074;-39
2022/05/07 05:09:04;;;;;;;22.10;16.55;;;13.30;99.90;;;;;;5007858;28;20069;-40
2022/05/07 05:11:31;;;;;;;20.75;15.68;;;13.30;99.90;;;;;;5008128;28;20042;-40
2022/05/07 05:13:56;;;;;;;24.08;17.17;;;13.30;99.90;;;;;;5008654;28;20038;-42
2022/05/07 05:16:22;;;;;;;29.63;16.52;;;13.30;99.90;;;;;;5009804;28;20152;-40
2022/05/07 05:18:48;;;;;;;49.75;18.42;;;13.30;99.90;;;;;;5001999;28;20418;-42
2022/05/07 05:21:14;;;;;;;29.85;17.55;;;13.30;99.90;;;;;;5008615;28;20120;-41
2022/05/07 05:23:39;;;;;;;29.73;17.90;;;13.30;99.90;;;;;;5004915;28;20064;-40
2022/05/07 05:26:05;;;;;;;29.58;18.38;;;13.40;99.90;;;;;;5000390;28;20041;-41
2022/05/07 05:28:30;;;;;;;43.53;17.75;;;13.40;99.90;;;;;;5006814;28;20435;-42
2022/05/07 05:30:56;;;;;;;28.38;16.67;;;13.50;99.90;;;;;;5005832;28;20042;-50
2022/05/07 05:33:22;;;;;;;24.17;16.98;;;13.50;99.90;;;;;;5010358;28;20073;-41
2022/05/07 05:35:48;;;;;;;21.52;15.32;;;13.60;99.90;;;;;;5007452;28;20049;-41
2022/05/07 05:38:17;;;;;;;18.60;14.27;;;13.60;99.90;;;;;;4998934;28;20115;-43
2022/05/07 05:40:43;;;;;;;20.15;16.77;;;13.70;99.90;;;;;;4987841;28;20105;-42
2022/05/07 05:43:09;;;;;;;19.52;13.93;;;13.80;99.90;;;;;;5006518;28;20033;-43
2022/05/07 05:45:35;;;;;;;21.48;15.35;;;13.70;99.90;;;;;;4999852;28;20045;-40
2022/05/07 05:48:02;;;;;;;19.95;14.63;;;13.80;99.90;;;;;;5005670;28;20026;-40
2022/05/07 05:50:31;;;;;;;20.50;14.98;;;13.80;99.90;;;;;;4990069;28;20042;-40
2022/05/07 05:52:58;;;;;;;17.92;14.23;;;13.80;99.90;;;;;;5005148;28;20054;-40
2022/05/07 05:55:24;;;;;;;18.45;14.27;;;13.80;99.90;;;;;;5005876;28;20117;-40
2022/05/07 05:57:50;;;;;;;19.98;14.75;;;13.80;99.90;;;;;;4997096;28;20535;-40
2022/05/07 06:00:16;;;;;;;20.58;14.40;;;13.90;99.90;;;;;;5004676;28;20061;-39
2022/05/07 06:02:45;;;;;;;25.92;14.90;;;13.90;99.90;;;;;;4988366;28;20115;-40
2022/05/07 06:05:12;;;;;;;19.42;13.90;;;13.90;99.90;;;;;;5004147;28;20556;-40
2022/05/07 06:07:38;;;;;;;19.20;13.68;;;13.90;99.90;;;;;;5004720;28;20038;-40
2022/05/07 06:10:04;;;;;;;19.02;13.48;;;13.90;99.90;;;;;;5006140;28;20368;-40
2022/05/07 06:12:30;;;;;;;17.92;13.77;;;13.90;99.90;;;;;;5002276;28;20037;-42
2022/05/07 06:14:56;;;;;;;19.65;11.88;;;13.90;99.90;;;;;;5008264;28;20380;-41
2022/05/07 06:17:22;;;;;;;13.82;11.05;;;14.00;99.90;;;;;;5000280;28;20036;-41
2022/05/07 06:19:48;;;;;;;17.48;11.95;;;14.00;99.90;;;;;;5004292;28;20722;-39
2022/05/07 06:22:14;;;;;;;15.32;10.27;;;14.10;99.90;;;;;;5007555;28;20046;-40
2022/05/07 06:27:33;;;;;;;13.88;9.80;;;14.20;99.90;;;;;;5009487;28;20136;-40
2022/05/07 06:29:59;;;;;;;15.80;12.48;;;14.30;99.90;;;;;;5001080;28;20100;-41
2022/05/07 06:32:36;;;;;;;15.98;10.60;;;14.40;99.90;;;;;;4999103;28;20038;-42
2022/05/07 06:35:07;;;;;;;14.52;10.27;;;14.40;99.90;;;;;;5005126;28;20497;-41
2022/05/07 06:37:34;;;;;;;14.70;9.77;;;14.30;99.90;;;;;;5008442;28;20042;-40
2022/05/07 06:40:00;;;;;;;16.42;11.32;;;14.40;99.90;;;;;;4983510;28;20129;-42
2022/05/07 06:42:26;;;;;;;15.93;11.80;;;14.40;99.90;;;;;;5006642;28;20045;-42
2022/05/07 06:44:52;;;;;;;11.60;9.20;;;14.40;99.90;;;;;;5003875;28;20075;-41
2022/05/07 06:47:17;;;;;;;13.98;10.32;;;14.40;99.90;;;;;;5003933;28;20070;-40
2022/05/07 06:49:43;;;;;;;12.52;10.10;;;14.40;99.90;;;;;;5006298;28;20052;-43
2022/05/07 06:52:10;;;;;;;14.85;10.65;;;14.40;99.90;;;;;;5002850;28;20053;-42
2022/05/07 06:54:36;;;;;;;17.92;10.82;;;14.40;99.90;;;;;;5001017;28;20466;-40
2022/05/07 06:57:03;;;;;;;14.98;9.50;;;14.40;99.90;;;;;;5007193;28;20048;-41
2022/05/07 06:59:32;;;;;;;14.30;10.55;;;14.50;99.90;;;;;;5003655;28;20050;-43
2022/05/07 07:01:58;;;;;;;14.13;10.57;;;14.60;99.90;;;;;;4999714;28;20517;-44
2022/05/07 07:04:24;;;;;;;14.43;10.10;;;14.70;99.90;;;;;;5004652;28;20054;-42
2022/05/07 07:06:50;;;;;;;15.52;11.07;;;14.80;99.90;;;;;;4996884;28;20042;-40
2022/05/07 07:09:17;;;;;;;12.88;9.50;;;14.90;99.90;;;;;;5004931;28;20140;-40
2022/05/07 07:11:43;;;;;;;15.20;9.35;;;15.10;99.90;;;;;;5005780;28;20096;-43
2022/05/07 07:14:08;;;;;;;15.82;10.93;;;15.20;99.90;;;;;;5004839;28;20455;-40
2022/05/07 07:16:34;;;;;;;15.98;9.68;;;15.20;99.90;;;;;;5009044;28;20046;-42
2022/05/07 07:19:00;;;;;;;16.13;9.10;;;15.20;99.90;;;;;;5002998;28;20064;-41
2022/05/07 07:21:26;;;;;;;14.80;9.73;;;15.20;99.90;;;;;;5010115;28;20103;-41
2022/05/07 07:23:51;;;;;;;15.27;9.43;;;15.20;99.90;;;;;;5003259;28;20108;-41
2022/05/07 07:26:17;;;;;;;13.88;9.23;;;15.20;99.90;;;;;;4999867;28;20184;-40
2022/05/07 07:28:43;;;;;;;13.43;8.02;;;15.30;99.90;;;;;;5005624;28;20581;-41
2022/05/07 07:31:10;;;;;;;15.43;9.60;;;15.30;99.90;;;;;;5003775;28;20502;-42
2022/05/07 07:33:37;;;;;;;15.50;9.68;;;15.50;99.90;;;;;;4988727;28;20088;-41
2022/05/07 07:36:04;;;;;;;15.80;9.38;;;15.50;99.90;;;;;;4991332;28;20061;-41
2022/05/07 07:38:29;;;;;;;14.88;9.57;;;15.60;99.90;;;;;;5005947;28;20064;-43
2022/05/07 07:40:55;;;;;;;15.13;9.88;;;15.70;99.90;;;;;;5007761;28;20029;-41
2022/05/07 07:43:21;;;;;;;16.40;11.15;;;15.70;99.90;;;;;;5005968;28;20117;-43
2022/05/07 07:48:31;;;;;;;16.80;9.65;;;15.70;99.90;;;;;;4998540;28;20099;-42
2022/05/07 07:50:57;;;;;;;15.82;10.10;;;15.80;99.90;;;;;;4984033;28;20288;-43
2022/05/07 07:53:24;;;;;;;14.23;9.90;;;15.90;99.90;;;;;;5005722;28;20499;-40
2022/05/07 07:55:50;;;;;;;16.75;11.85;;;16.00;99.90;;;;;;5001530;28;20042;-42
2022/05/07 07:58:17;;;;;;;18.17;11.40;;;16.00;99.80;;;;;;5003726;28;20060;-40
2022/05/07 08:00:44;;;;;;;16.70;11.73;;;16.10;99.90;;;;;;4998421;28;20572;-42
2022/05/07 08:03:15;;;;;;;20.00;10.88;;;16.20;99.90;;;;;;4997784;28;20430;-42
2022/05/07 08:05:43;;;;;;;17.17;10.30;;;16.20;99.70;;;;;;5001016;28;20138;-43
2022/05/07 08:13:42;;;;;;;17.35;9.85;;;16.40;99.60;;;;;;5007956;28;20440;-42
2022/05/07 08:16:08;;;;;;;15.82;10.65;;;16.40;99.30;;;;;;4997781;28;20046;-41
2022/05/07 08:18:35;;;;;;;18.02;10.30;;;16.50;99.30;;;;;;5006093;28;20180;-41
2022/05/07 08:21:01;;;;;;;16.15;9.18;;;16.40;99.40;;;;;;4998995;28;20046;-41
2022/05/07 08:23:26;;;;;;;20.42;10.65;;;16.40;99.60;;;;;;4999340;28;20467;-41
2022/05/07 08:25:53;;;;;;;23.35;11.05;;;16.40;99.50;;;;;;4998521;28;20033;-41
2022/05/07 08:28:19;;;;;;;18.85;10.70;;;16.40;99.70;;;;;;4996092;28;20105;-41
2022/05/07 08:30:45;;;;;;;18.42;10.80;;;16.50;99.90;;;;;;4997874;28;20038;-42
2022/05/07 08:33:11;;;;;;;21.33;11.23;;;16.60;99.90;;;;;;5004235;28;20038;-41
2022/05/07 08:35:37;;;;;;;21.42;10.40;;;16.60;99.90;;;;;;5001480;28;20157;-43
2022/05/07 08:38:03;;;;;;;17.65;10.57;;;16.60;99.90;;;;;;5002123;28;20463;-41
2022/05/07 08:40:29;;;;;;;21.60;11.68;;;16.60;99.90;;;;;;5002830;28;20111;-41
2022/05/07 08:42:55;;;;;;;20.35;11.48;;;16.70;99.90;;;;;;4995702;28;20053;-44
2022/05/07 08:45:21;;;;;;;20.95;10.93;;;16.80;99.90;;;;;;4996489;28;20034;-41
2022/05/07 08:47:51;;;;;;;19.73;10.98;;;17.00;99.90;;;;;;4998031;28;20036;-44
2022/05/07 08:50:18;;;;;;;24.05;13.38;;;17.10;99.40;;;;;;5002939;28;20050;-42
2022/05/07 08:52:44;;;;;;;25.25;13.27;;;17.30;99.00;;;;;;4995130;28;20487;-42
2022/05/07 08:55:12;;;;;;;21.73;12.82;;;17.30;97.90;;;;;;4994478;28;20042;-42
2022/05/07 08:57:39;;;;;;;21.10;12.27;;;17.20;97.60;;;;;;5007158;28;20109;-42
2022/05/07 09:00:06;;;;;;;20.77;12.77;;;17.10;97.80;;;;;;4995757;28;20156;-44
2022/05/07 09:02:43;;;;;;;21.77;13.07;;;17.20;98.30;;;;;;4998594;28;20193;-42
2022/05/07 09:05:13;;;;;;;28.67;13.15;;;17.50;98.60;;;;;;4997957;28;20050;-41
2022/05/07 09:07:41;;;;;;;24.95;13.65;;;17.80;96.70;;;;;;4999980;28;20038;-41
2022/05/07 09:10:12;;;;;;;24.77;12.60;;;17.90;96.20;;;;;;4996548;28;20045;-46
2022/05/07 09:12:38;;;;;;;27.65;13.32;;;18.00;95.50;;;;;;5002862;28;20030;-41
2022/05/07 09:15:06;;;;;;;18.67;12.40;;;18.20;95.40;;;;;;4999231;28;20161;-43
2022/05/07 09:17:33;;;;;;;22.13;12.50;;;18.40;94.60;;;;;;5003700;28;20427;-42
2022/05/07 09:20:08;;;;;;;27.92;13.82;;;18.50;93.30;;;;;;4998555;28;20635;-43
2022/05/07 09:22:34;;;;;;;21.92;13.55;;;18.70;92.50;;;;;;5000095;28;20052;-42
2022/05/07 09:25:00;;;;;;;20.23;12.02;;;18.70;90.60;;;;;;5005143;28;20120;-45
2022/05/07 09:27:25;;;;;;;19.95;12.27;;;18.70;90.80;;;;;;5003156;28;20381;-43
2022/05/07 09:30:02;;;;;;;20.88;12.13;;;18.80;91.30;;;;;;5005742;28;20034;-43
2022/05/07 09:32:38;;;;;;;20.08;12.30;;;18.80;90.40;;;;;;5000527;28;20056;-42
2022/05/07 09:38:01;;;;;;;22.48;13.68;;;18.70;91.30;;;;;;4997587;28;20038;-43
2022/05/07 09:40:27;;;;;;;21.35;12.57;;;18.70;91.40;;;;;;5004413;28;20125;-43
2022/05/07 09:42:57;;;;;;;25.98;13.43;;;18.60;90.70;;;;;;5006721;28;20125;-42
2022/05/07 09:45:27;;;;;;;23.65;14.77;;;18.50;90.60;;;;;;5007204;28;20042;-43
2022/05/07 09:47:55;;;;;;;23.67;14.50;;;18.30;91.70;;;;;;4996802;28;20038;-45
2022/05/07 09:50:43;;;;;;;24.80;14.30;;;18.20;92.60;;;;;;5001727;28;20050;-42
2022/05/07 09:58:40;;;;;;;23.90;15.38;;;18.60;92.30;;;;;;5006521;28;20049;-41
2022/05/07 10:01:21;;;;;;;25.70;15.95;;;18.80;92.80;;;;;;5003404;28;20509;-42
2022/05/07 10:04:11;;;;;;;24.25;15.00;;;18.90;92.70;;;;;;5005780;28;20042;-44
2022/05/07 10:06:45;;;;;;;21.58;15.07;;;18.90;92.70;;;;;;5006229;28;20140;-41
2022/05/07 10:09:39;;;;;;;25.20;15.73;;;18.90;92.00;;;;;;5008048;28;20065;-42
2022/05/07 10:12:05;;;;;;;22.00;14.32;;;18.80;91.80;;;;;;5008621;28;20406;-41
2022/05/07 10:14:32;;;;;;;27.55;16.88;;;18.70;92.30;;;;;;5006617;28;20104;-42
2022/05/07 10:16:58;;;;;;;25.25;15.60;;;18.70;92.30;;;;;;5008183;28;20092;-41
2022/05/07 10:19:42;;;;;;;23.80;15.70;;;18.70;92.20;;;;;;5008153;28;20039;-44
2022/05/07 10:22:34;;;;;;;21.38;14.98;;;18.80;91.90;;;;;;4990391;28;20095;-45
2022/05/07 10:25:13;;;;;;;24.45;16.85;;;18.70;92.30;;;;;;4997386;28;20088;-42
2022/05/07 10:27:43;;;;;;;25.08;16.77;;;18.80;92.30;;;;;;5001200;28;20046;-43
2022/05/07 10:30:21;;;;;;;24.67;16.75;;;18.80;92.70;;;;;;5001677;28;20124;-43
2022/05/07 10:32:58;;;;;;;24.98;15.15;;;18.80;92.30;;;;;;5001296;28;20048;-43
2022/05/07 10:35:49;;;;;;;24.63;15.80;;;18.80;92.30;;;;;;4994134;28;20503;-41
2022/05/07 10:38:26;;;;;;;22.08;15.52;;;18.80;92.50;;;;;;4996603;28;20196;-47
2022/05/07 10:40:53;;;;;;;21.17;15.45;;;18.90;91.90;;;;;;5001277;28;20045;-44
2022/05/07 10:43:25;;;;;;;22.00;14.77;;;19.00;91.10;;;;;;5004781;28;20033;-44
2022/05/07 10:46:01;;;;;;;22.15;14.50;;;19.00;90.60;;;;;;5000528;28;20085;-43
2022/05/07 10:48:27;;;;;;;19.50;13.45;;;19.10;90.40;;;;;;4984372;28;20045;-44
2022/05/07 10:50:58;;;;;;;23.35;14.02;;;19.10;89.90;;;;;;4996473;28;20042;-43
2022/05/07 10:53:35;;;;;;;18.73;11.63;;;19.20;88.90;;;;;;5005820;28;20053;-44
2022/05/07 10:56:01;;;;;;;18.27;12.55;;;19.30;87.40;;;;;;5006363;28;20117;-42
2022/05/07 10:58:30;;;;;;;19.70;13.45;;;19.40;87.30;;;;;;5006907;28;20164;-43
2022/05/07 11:00:58;;;;;;;20.67;12.25;;;19.40;85.90;;;;;;5003666;28;20072;-44
2022/05/07 11:03:25;;;;;;;19.33;13.70;;;19.50;84.40;;;;;;5001706;28;20558;-42
2022/05/07 11:05:51;;;;;;;18.27;13.13;;;19.50;83.60;;;;;;5006222;28;20045;-45
2022/05/07 11:08:17;;;;;;;18.98;12.98;;;19.60;83.50;;;;;;5006738;28;20038;-42
2022/05/07 11:10:42;;;;;;;20.27;13.85;;;19.70;84.50;;;;;;5005824;28;20108;-46
2022/05/07 11:13:11;;;;;;;20.70;14.18;;;20.00;84.10;;;;;;4985333;28;20367;-43
2022/05/07 11:15:37;;;;;;;21.15;14.75;;;20.20;81.80;;;;;;4999758;28;20038;-42
2022/05/07 11:18:14;;;;;;;22.85;16.33;;;20.50;80.10;;;;;;5005751;28;20499;-46
2022/05/07 11:20:41;;;;;;;18.40;15.20;;;20.70;76.20;;;;;;5005035;28;20459;-42
2022/05/07 11:23:11;;;;;;;18.63;15.50;;;20.90;76.30;;;;;;5001523;28;20038;-43
2022/05/07 11:25:36;;;;;;;20.17;15.35;;;21.00;74.30;;;;;;5003641;28;20046;-42
2022/05/07 11:28:02;;;;;;;19.30;15.32;;;21.10;73.10;;;;;;5000471;28;20042;-42
2022/05/07 11:30:28;;;;;;;17.63;13.48;;;21.10;72.60;;;;;;5007969;28;20050;-41
2022/05/07 11:32:55;;;;;;;17.50;13.95;;;21.30;71.60;;;;;;5001704;28;20033;-42
2022/05/07 11:35:26;;;;;;;17.60;13.48;;;21.50;69.40;;;;;;5002575;28;20620;-43
2022/05/07 11:37:52;;;;;;;15.18;12.75;;;21.50;67.40;;;;;;4986028;28;20092;-44
2022/05/07 11:40:29;;;;;;;16.23;13.00;;;21.50;66.70;;;;;;5005997;28;20066;-43
2022/05/07 11:45:25;;;;;;;19.35;15.13;;;21.60;65.50;;;;;;5004989;28;20467;-42
2022/05/07 11:45:41;;;;;;;18.08;14.15;;;21.60;66.20;;;;;;4997975;28;20041;-44
2022/05/07 11:48:13;;;;;;;18.15;12.98;;;21.50;66.90;;;;;;4998306;28;20381;-45
2022/05/07 11:50:56;;;;;;;17.20;14.10;;;21.40;67.30;;;;;;4999958;28;20046;-42
2022/05/07 11:53:26;;;;;;;15.75;13.77;;;21.40;66.90;;;;;;5004024;28;20092;-44
2022/05/07 11:55:52;;;;;;;18.33;14.48;;;21.40;66.90;;;;;;5002713;28;20046;-43
2022/05/07 11:58:23;;;;;;;17.00;13.68;;;21.40;66.50;;;;;;4999512;28;20045;-42
2022/05/07 12:00:50;;;;;;;17.40;13.43;;;21.40;66.20;;;;;;5005227;28;20034;-42
2022/05/07 12:03:17;;;;;;;16.40;13.00;;;21.60;66.00;;;;;;5003163;28;20084;-42
2022/05/07 12:05:45;;;;;;;21.20;16.40;;;22.00;65.30;;;;;;5004406;28;20038;-44
2022/05/07 12:08:19;;;;;;;24.92;19.20;;;22.30;65.00;;;;;;5003266;28;20037;-41
2022/05/07 12:10:47;;;;;;;28.30;18.35;;;22.30;63.20;;;;;;5003789;28;20030;-43
2022/05/07 12:13:18;;;;;;;22.85;17.50;;;22.20;63.40;;;;;;5003111;28;20092;-42
2022/05/07 12:18:30;;;;;;;20.95;16.73;;;22.50;63.60;;;;;;5000974;28;20527;-44
2022/05/07 12:20:57;;;;;;;25.45;17.48;;;22.40;62.00;;;;;;4983412;28;20039;-46
2022/05/07 12:31:48;;;;;;;22.10;17.15;;;21.70;65.40;;;;;;4995989;28;20038;-42
2022/05/07 12:34:13;;;;;;;23.33;16.30;;;21.70;65.30;;;;;;4999800;28;20088;-43
2022/05/07 12:36:39;;;;;;;20.63;17.00;;;22.00;65.30;;;;;;5006956;28;20038;-43
2022/05/07 12:39:05;;;;;;;21.27;16.17;;;22.40;63.60;;;;;;4984140;28;20073;-45
2022/05/07 12:41:30;;;;;;;21.55;15.13;;;22.70;62.90;;;;;;5001843;28;20092;-45
2022/05/07 12:43:59;;;;;;;19.98;14.85;;;23.00;61.50;;;;;;4984499;28;20603;-45
2022/05/07 12:46:25;;;;;;;16.80;14.65;;;23.20;60.30;;;;;;5000058;28;20041;-42
2022/05/07 12:48:52;;;;;;;19.65;15.18;;;23.50;58.60;;;;;;4983127;28;20117;-44
2022/05/07 12:51:17;;;;;;;20.65;14.35;;;23.70;57.30;;;;;;4998277;28;20441;-44
2022/05/07 12:53:43;;;;;;;20.08;14.27;;;23.50;57.80;;;;;;5007183;28;20061;-43
2022/05/07 12:56:09;;;;;;;18.90;14.70;;;23.30;56.50;;;;;;5008599;28;20042;-44
2022/05/07 12:58:35;;;;;;;17.88;13.77;;;22.90;56.60;;;;;;5000816;28;20108;-42
2022/05/07 13:01:01;;;;;;;18.02;13.95;;;22.60;57.60;;;;;;5004788;28;20217;-45
2022/05/07 13:03:27;;;;;;;19.83;13.70;;;22.50;58.90;;;;;;5009305;28;20037;-46
2022/05/07 13:05:53;;;;;;;19.63;14.40;;;22.50;59.60;;;;;;5007558;28;20029;-44
2022/05/07 13:08:19;;;;;;;19.92;13.43;;;22.60;59.50;;;;;;5007864;28;20044;-46